Sea Lion — WDG3865 — position and weather

sailwx.info

Track history (hours):
 
Tides and Currents Weather Stations Pressure Air Temp Water Temp Dewpoint Dewpoint Depression Visibility Wind Speed Wind Dir Waves Ship Positions

Sea Lion

Owner: Garber Bros., Inc., Morgan City, LA. More information available from US FCC via Universal Licensing System and Coast Guard Vessel Documentation Center.

Last reported at 2017-Oct-15 21:38 UTC. Time now 2017-Oct-22 06:18 UTC.
Position N 29°32' W 094°54'.

Length 25 m; draft 3 m.

Type: Towing. MMSI: 367530470.

Date/timePositionNaut miles runAvg speedWind from/ knotsBaromVisibWave heightAir tempDewpointWater temp
2017-Oct-15 21:38N 29°32' W 094°54'1 8.1
2017-Oct-15 21:28N 29°33' W 094°55'4 8.0
2017-Oct-15 20:59N 29°36' W 094°57'2 3.4
2017-Oct-15 20:30N 29°38' W 094°57'0 0.0
2017-Oct-15 20:00N 29°38' W 094°57'0 0.2
2017-Oct-15 19:30N 29°38' W 094°57'0 0.2
2017-Oct-15 19:00N 29°38' W 094°57'0 0.1
2017-Oct-15 18:30N 29°38' W 094°57'1 1.7
2017-Oct-15 17:58N 29°37' W 094°57'4 3.9
2017-Oct-15 17:02N 29°34' W 094°55'0 3.5
2017-Oct-15 16:59N 29°34' W 094°55'  
Track history (hours):
 
Tides and Currents Weather Stations Pressure Air Temp Water Temp Dewpoint Dewpoint Depression Visibility Wind Speed Wind Dir Waves Ship Positions

Sea Lion

Owner: Garber Bros., Inc., Morgan City, LA. More information available from US FCC via Universal Licensing System and Coast Guard Vessel Documentation Center.

Last reported at 2017-Oct-15 21:38 UTC. Time now 2017-Oct-22 06:18 UTC.
Position N 29°32' W 094°54'.

Length 25 m; draft 3 m.

Type: Towing. MMSI: 367530470.

Date/timePositionNaut miles runAvg speedWind from/ knotsBaromVisibWave heightAir tempDewpointWater temp
2017-Oct-15 21:38N 29°32' W 094°54'1 8.1
2017-Oct-15 21:28N 29°33' W 094°55'4 8.0
2017-Oct-15 20:59N 29°36' W 094°57'2 3.4
2017-Oct-15 20:30N 29°38' W 094°57'0 0.0
2017-Oct-15 20:00N 29°38' W 094°57'0 0.2
2017-Oct-15 19:30N 29°38' W 094°57'0 0.2
2017-Oct-15 19:00N 29°38' W 094°57'0 0.1
2017-Oct-15 18:30N 29°38' W 094°57'1 1.7
2017-Oct-15 17:58N 29°37' W 094°57'4 3.9
2017-Oct-15 17:02N 29°34' W 094°55'0 3.5
2017-Oct-15 16:59N 29°34' W 094°55'  

Dump ship's entire track history